Hovedside
METAR-TAF:

METAR-TAF

Lufthavner :

Åre Östersund lufthavn

Östersund-Frösön, Sverige

breddegrad: 63-11N, lengdegrad: 014-30E, høyde over havet: 376 m

Gjeldene værobservasjon

Denne rapporten ble laget for 15 minutter siden, klokken 01:20 UTC
Vind 6 kt fra Nord-nordvest
Temperatur -1°C
Luftfuktighet 93%
Trykk 1014 hPa
Sikt 10 km eller mer
lett snø

METAR: ESNZ 110120Z AUTO 33006KT 9999 -SN OVC032/// M01/M02 Q1014

Tid: 02:35 (01:35 UTC)

Varsel

Denne rapporten ble laget for 5 timer og 5 minutter siden, klokken 20:30 UTC
Varsel gyldig fra 10. klokken 21 UTC til 10. klokken 23 UTC
Vind 7 kt fra Nord-nordvest
Sikt: 5000 m
Brutte skyer i en høyde av 2000 ft
lett snø
Midlertidig
fra 10. klokken 21 UTC til 10. klokken 23 UTC
Sikt: 2000 m
i en høyde av 800 ft
snø

TAF: ESNZ 102030Z 1021/1023 34007KT 5000 -SN BKN020 TEMPO 1021/1023 2000 SN VV008

Værobservasjoner og værvarsel for over 4000 flyplasser (METAR- og TAF-rapporter).

Tilgjengelige stasjoner er representert av de røde og gule prikkene på kartet.

Hold musepekeren over prikken for å se navnet på stasjonen.

Klikk så for å se værobservasjoner og -varsler.

For å forandre kartet kan du klikke på den grønne knappen med svart kryss for å zoome inn, på den grønne knappen med strek for å zoome ut, eller på de grønne pilene for å se tilstøtende kart.


METAR-TAF: